Flight Track Log - Related Links

Times and Time Zones

All times are in EDT time to prevent confusion due to time zone crossing. See the N10YC flight status page for this flight to view local times or setup timezone preferences in your user account.

Time Position Orientation Groundspeed Altitude Reporting Facility
EDT Latitude Longitude Course Direction KTS MPH feet Rate Location/Type
Fri 01:10:45 PM 38.1806 -85.7475 298° West 110 127 1,100  Level FAA TRACON SMA TRACON (SMA)
Fri 01:11:04 PM 38.1847 -85.7575 298° West 105 121 1,500 1,200 Climbing FAA TRACON SMA TRACON (SMA)
Fri 01:11:25 PM 38.1892 -85.7681 298° West 108 124 1,900 1,171 Climbing FAA TRACON SMA TRACON (SMA)
Fri 01:11:45 PM 38.1939 -85.7783 300° West 111 128 2,300 1,350 Climbing FAA TRACON SMA TRACON (SMA)
Fri 01:12:05 PM 38.1992 -85.7917 297° West 109 125 2,800 1,500 Climbing FAA TRACON SMA TRACON (SMA)
Fri 01:12:25 PM 38.1992 -85.8019 270° West 109 125 3,300 1,050 Climbing FAA TRACON SMA TRACON (SMA)
Fri 01:12:45 PM 38.1939 -85.8114 235° Southwest 105 121 3,500 600 Climbing FAA TRACON SMA TRACON (SMA)
Fri 01:13:05 PM 38.1872 -85.8244 237° Southwest 113 130 3,700 600 Climbing FAA TRACON SMA TRACON (SMA)
Fri 01:13:25 PM 38.1825 -85.8364 243° Southwest 122 140 3,900 900 Climbing FAA TRACON SMA TRACON (SMA)
Fri 01:13:45 PM 38.1778 -85.8492 245° Southwest 126 145 4,300 1,200 Climbing FAA TRACON SMA TRACON (SMA)
Fri 01:14:05 PM 38.1717 -85.8633 241° Southwest 121 139 4,700 750 Climbing FAA TRACON SMA TRACON (SMA)
Fri 01:14:25 PM 38.1658 -85.8756 239° Southwest 127 146 4,800 308 Climbing FAA TRACON SMA TRACON (SMA)
Fri 01:14:44 PM 38.1592 -85.8886 237° Southwest 137 158 4,900 300 Climbing FAA TRACON SMA TRACON (SMA)
Fri 01:15:05 PM 38.1503 -85.9042 234° Southwest 142 163 5,000 146 Climbing FAA TRACON SMA TRACON (SMA)
Fri 01:15:25 PM 38.1428 -85.9164 232° Southwest 141 162 5,000  Level FAA TRACON SMA TRACON (SMA)
Fri 01:16:05 PM 38.1247 -85.9431 229° Southwest 143 165 5,000 -100 Level FAA TRACON SMA TRACON (SMA)
Fri 01:16:25 PM 38.1169 -85.9553 231° Southwest 144 166 4,900 -150 Descending FAA TRACON SMA TRACON (SMA)
Fri 01:16:45 PM 38.1089 -85.9675 230° Southwest 144 166 4,900 154 Level FAA TRACON SMA TRACON (SMA)
Fri 01:17:04 PM 38.1000 -85.9831 234° Southwest 142 163 5,000  Climbing FAA TRACON SMA TRACON (SMA)
Fri 01:17:25 PM 38.0931 -85.9958 235° Southwest 143 165 4,900 -146 Descending FAA TRACON SMA TRACON (SMA)
Fri 01:17:45 PM 38.0861 -86.0086 235° Southwest 142 163 4,900 450 Level FAA TRACON SMA TRACON (SMA)
Fri 01:18:05 PM 38.0775 -86.0242 235° Southwest 141 162 5,200 900 Climbing FAA TRACON SMA TRACON (SMA)
Fri 01:18:25 PM 38.0711 -86.0361 236° Southwest 135 155 5,500 769 Climbing FAA TRACON SMA TRACON (SMA)
Fri 01:18:44 PM 38.0642 -86.0472 232° Southwest 132 152 5,700 600 Climbing FAA TRACON SMA TRACON (SMA)
Fri 01:19:05 PM 38.0544 -86.0617 229° Southwest 136 157 5,900 293 Climbing FAA TRACON SMA TRACON (SMA)
Fri 01:19:25 PM 38.0467 -86.0733 230° Southwest 141 162 5,900 146 Level FAA TRACON SMA TRACON (SMA)
Fri 01:19:46 PM 38.0369 -86.0892 232° Southwest 146 168 6,000 154 Climbing FAA TRACON SMA TRACON (SMA)
Fri 01:20:04 PM 38.0300 -86.1017 235° Southwest 144 166 6,000 -102 Level FAA TRACON SMA TRACON (SMA)
Fri 01:20:45 PM 38.0161 -86.1278 236° Southwest 142 163 5,900  Descending FAA TRACON SMA TRACON (SMA)
Fri 01:21:05 PM 38.0078 -86.1442 237° Southwest 142 163 6,000 -300 Climbing FAA TRACON SMA TRACON (SMA)
Fri 01:21:25 PM 38.0006 -86.1567 234° Southwest 144 166 5,700 -698 Descending FAA TRACON SMA TRACON (SMA)
Fri 01:21:48 PM 37.9925 -86.1697 232° Southwest 151 174 5,500 -558 Descending FAA TRACON SMA TRACON (SMA)
Fri 01:22:08 PM 37.9822 -86.1867 232° Southwest 155 178 5,300 -486 Descending FAA TRACON SMA TRACON (SMA)
Fri 01:22:25 PM 37.9744 -86.1994 232° Southwest 153 176 5,200 -486 Descending FAA TRACON SMA TRACON (SMA)
Fri 01:22:45 PM 37.9656 -86.2125 229° Southwest 155 178 5,000 -600 Descending FAA TRACON SMA TRACON (SMA)
Fri 01:23:05 PM 37.9561 -86.2292 234° Southwest 154 177 4,800 -600 Descending FAA TRACON SMA TRACON (SMA)
Fri 01:23:25 PM 37.9489 -86.2436 238° Southwest 155 178 4,600 -476 Descending FAA TRACON SMA TRACON (SMA)
Fri 01:24:08 PM 37.9325 -86.2753 237° Southwest 155 178 4,300 -476 Descending FAA TRACON SMA TRACON (SMA)
Fri 01:24:28 PM 37.9228 -86.2922 234° Southwest 154 177 4,100 -486 Descending FAA TRACON SMA TRACON (SMA)
Fri 01:24:45 PM 37.9169 -86.3025 234° Southwest 153 176 4,000 -211 Descending FAA TRACON SMA TRACON (SMA)
Fri 01:25:25 PM 37.8981 -86.3317 231° Southwest 154 177 3,900 -100 Descending FAA TRACON SMA TRACON (SMA)
Fri 01:25:45 PM 37.8911 -86.3447 236° Southwest 145 167 3,900  Level FAA TRACON SMA TRACON (SMA)
Fri 01:26:05 PM 37.8831 -86.3569 230° Southwest 145 167 3,900  Level FAA TRACON SMA TRACON (SMA)
Fri 01:26:26 PM 37.8733 -86.3731 233° Southwest 148 170 3,900  Level FAA TRACON SMA TRACON (SMA)
Fri 01:26:46 PM 37.8658 -86.3861 234° Southwest 149 171 3,900  Level FAA TRACON SMA TRACON (SMA)
Fri 01:27:05 PM 37.8575 -86.4031 238° Southwest 149 171 3,900  Level FAA TRACON SMA TRACON (SMA)
Fri 01:27:25 PM 37.8492 -86.4153 229° Southwest 148 170 3,900  Level FAA TRACON SMA TRACON (SMA)
Fri 01:27:45 PM 37.8436 -86.4294 244° Southwest 146 168 3,900  Level FAA TRACON SMA TRACON (SMA)
Fri 01:28:05 PM 37.8353 -86.4414 229° Southwest 145 167 3,900  Level FAA TRACON SMA TRACON (SMA)
Fri 01:28:25 PM 37.8264 -86.4569 234° Southwest 145 167 3,900  Level FAA TRACON SMA TRACON (SMA)
Fri 01:28:45 PM 37.8189 -86.4694 233° Southwest 143 165 3,900  Level FAA TRACON SMA TRACON (SMA)
Fri 01:29:05 PM 37.8106 -86.4808 227° Southwest 144 166 3,900  Level FAA TRACON SMA TRACON (SMA)
Fri 01:29:25 PM 37.7997 -86.4950 226° Southwest 146 168 3,900  Level FAA TRACON SMA TRACON (SMA)
Fri 01:29:48 PM 37.7906 -86.5106 233° Southwest 148 170 3,900  Level FAA TRACON SMA TRACON (SMA)
Fri 01:30:25 PM 37.7797 -86.5342 240° Southwest 145 167 3,900  Level FAA TRACON SMA TRACON (SMA)
Fri 01:30:45 PM 37.7797 -86.5342 50° Northeast 145 167 3,900 42 Level FAA TRACON SMA TRACON (SMA)
Fri 01:32:49 PM 37.7208 -86.6350 234° Southwest 150 173 4,000 32 Climbing Indianapolis Center
Fri 01:33:51 PM 37.6953 -86.6786 233° Southwest 153 176 4,000 48 Level Indianapolis Center
Fri 01:34:53 PM 37.6708 -86.7200 233° Southwest 151 174 4,100  Climbing Indianapolis Center
Fri 01:35:54 PM 37.6450 -86.7611 232° Southwest 149 171 4,000  Descending Indianapolis Center
Fri 01:36:56 PM 37.6217 -86.8025 235° Southwest 146 168 4,100  Climbing Indianapolis Center
Fri 01:37:58 PM 37.5922 -86.8539 234° Southwest 148 170 4,000 -48 Descending Indianapolis Center
Fri 01:39:00 PM 37.5664 -86.8953 232° Southwest 149 171 4,000  Level Indianapolis Center
Fri 01:40:01 PM 37.5414 -86.9378 233° Southwest 150 173 4,000  Level Indianapolis Center
Fri 01:41:03 PM 37.5153 -86.9797 232° Southwest 150 173 4,000  Level Indianapolis Center
Fri 01:41:31 PM 37.4992 -87.0058 232° Southwest 152 175 4,000  Level Memphis Center
Fri 01:43:33 PM 37.4494 -87.0942 235° Southwest 153 176 4,000  Level Memphis Center
Fri 01:44:33 PM 37.4253 -87.1344 233° Southwest 154 177 4,000  Level Memphis Center
Fri 01:45:34 PM 37.3975 -87.1825 234° Southwest 154 177 4,000  Level Memphis Center
Fri 01:46:28 PM 37.3756 -87.2172 232° Southwest 154 177 4,000  Level Memphis Center
Fri 01:47:29 PM 37.3475 -87.2628 232° Southwest 155 178 4,000  Level Memphis Center
Fri 01:48:30 PM 37.3236 -87.3053 235° Southwest 158 182 4,000 -50 Level Memphis Center
Fri 01:49:30 PM 37.2933 -87.3483 229° Southwest 151 174 3,900 -50 Descending Memphis Center
Fri 01:50:31 PM 37.2694 -87.3936 236° Southwest 148 170 3,900  Level Memphis Center
Fri 01:51:38 PM 37.2433 -87.4361 232° Southwest 151 174 3,900  Level Memphis Center
Fri 01:52:38 PM 37.2172 -87.4814 234° Southwest 158 182 3,900  Level Memphis Center
Fri 01:53:39 PM 37.1869 -87.5267 230° Southwest 154 177 3,900  Level Memphis Center
Fri 01:54:39 PM 37.1631 -87.5667 233° Southwest 153 176 3,900 35 Level Memphis Center
Fri 01:56:00 PM 37.1281 -87.6200 231° Southwest  Level FlightAware Approximate
Fri 01:56:29 PM 37.1222 -87.6353 231° Southwest 152 175 4,000  Level Indianapolis Center
Fri 01:57:31 PM 37.0914 -87.6850 232° Southwest 153 176 4,000 -48 Level Indianapolis Center
Fri 01:58:33 PM 37.0656 -87.7267 232° Southwest 152 175 3,900  Descending Indianapolis Center
Fri 01:59:42 PM 37.0342 -87.7739 230° Southwest 160 184 4,000 87 Climbing Memphis Center

Login

Don't have an account? Register now (free) for customized features, flight alerts, and more!